Terminal Aerodrome Forecast
Issued by NWS

Home | Current Version | Previous Version | Text Only | Print | Product List | Glossary On
Versions: 1 2 3 4 5 6 7 8 9 10 11 12 13 14 15
000
FTUS42 KFFC 141138
TAFPDK
TAF
KPDK 141138Z 1412/1512 25005KT P6SM SKC
     FM141600 29009KT P6SM FEW070
     FM150000 31006KT P6SM SKC
     FM150500 31003KT P6SM SKC=

USA.gov is the U.S. government's official web portal to all federal, state and local government web resources and services.